Time;durP1;ratioP1;P1;durP2;ratioP2;P2;SDS_P1;SDS_P2;PMS_P1;PMS_P2;Temp;Humidity;BMP_temperature;BMP_pressure;BME280_temperature;BME280_humidity;BME280_pressure;Samples;Min_cycle;Max_cycle;Signal;HPM_P1;HPM_P2
2021/11/06 00:01:26;;;;;;;35.73;20.47;;;6.20;99.90;;;;;;5051598;28;20737;-58
2021/11/06 00:03:52;;;;;;;36.93;18.47;;;6.20;99.90;;;;;;5051545;28;20650;-57
2021/11/06 00:06:19;;;;;;;30.07;17.67;;;6.20;99.90;;;;;;5050456;28;20853;-60
2021/11/06 00:08:46;;;;;;;28.77;16.50;;;6.20;99.90;;;;;;5051489;28;20699;-59
2021/11/06 00:11:14;;;;;;;35.70;17.23;;;6.20;99.90;;;;;;5050471;28;20206;-60
2021/11/06 00:13:41;;;;;;;27.07;17.03;;;6.10;99.90;;;;;;5051498;28;20237;-57
2021/11/06 00:16:07;;;;;;;27.23;16.47;;;6.20;99.90;;;;;;5050332;28;20214;-58
2021/11/06 00:18:34;;;;;;;29.10;17.20;;;6.20;99.90;;;;;;5050669;28;20213;-60
2021/11/06 00:21:01;;;;;;;32.00;17.03;;;6.10;99.90;;;;;;5050818;28;20273;-59
2021/11/06 00:23:28;;;;;;;25.13;15.90;;;6.10;99.90;;;;;;5051235;28;20867;-60
2021/11/06 00:25:55;;;;;;;26.17;15.83;;;6.10;99.90;;;;;;5050865;28;20221;-59
2021/11/06 00:28:23;;;;;;;25.03;16.13;;;6.00;99.90;;;;;;5051362;28;20216;-59
2021/11/06 00:30:50;;;;;;;27.63;17.17;;;6.00;99.90;;;;;;5051725;28;20202;-58
2021/11/06 00:33:16;;;;;;;27.80;16.10;;;5.90;99.90;;;;;;5054797;28;20722;-60
2021/11/06 00:35:43;;;;;;;30.77;17.60;;;5.90;99.90;;;;;;5054580;28;20233;-59
2021/11/06 00:38:10;;;;;;;26.13;16.13;;;5.90;99.90;;;;;;5054667;28;20240;-60
2021/11/06 00:40:37;;;;;;;25.30;15.80;;;5.90;1.00;;;;;;5053621;28;20573;-59
2021/11/06 00:43:04;;;;;;;30.30;15.83;;;5.90;1.00;;;;;;5053475;28;20226;-61
2021/11/06 00:45:32;;;;;;;28.37;15.60;;;5.90;1.00;;;;;;5054316;28;20247;-59
2021/11/06 00:47:58;;;;;;;24.47;15.20;;;5.90;1.00;;;;;;5054577;28;20210;-60
2021/11/06 00:50:25;;;;;;;26.93;15.03;;;5.90;99.90;;;;;;5053580;28;20262;-61
2021/11/06 00:52:53;;;;;;;25.43;15.07;;;5.80;99.90;;;;;;5054083;28;20229;-60
2021/11/06 00:55:20;;;;;;;23.87;15.07;;;5.80;99.90;;;;;;5053445;28;20210;-60
2021/11/06 00:57:48;;;;;;;27.03;14.67;;;5.70;99.90;;;;;;5054199;28;20205;-60
2021/11/06 01:00:17;;;;;;;26.70;16.10;;;5.70;99.90;;;;;;5053274;28;20297;-59
2021/11/06 01:02:45;;;;;;;30.90;16.80;;;5.70;1.00;;;;;;5054362;28;20229;-60
2021/11/06 01:05:14;;;;;;;26.57;15.20;;;5.60;1.00;;;;;;5054322;28;20259;-59
2021/11/06 01:07:41;;;;;;;23.53;15.47;;;5.60;1.00;;;;;;5054292;28;20584;-60
2021/11/06 01:10:10;;;;;;;27.87;15.40;;;5.60;1.00;;;;;;5054492;28;20202;-60
2021/11/06 01:12:37;;;;;;;28.30;15.57;;;5.60;1.00;;;;;;5054192;28;20222;-60
2021/11/06 01:15:05;;;;;;;30.07;16.27;;;5.60;1.00;;;;;;5054048;28;20256;-57
2021/11/06 01:17:32;;;;;;;32.87;17.70;;;5.60;1.00;;;;;;5053906;28;20213;-60
2021/11/06 01:20:00;;;;;;;32.77;17.13;;;5.60;1.00;;;;;;5054067;28;20283;-60
2021/11/06 01:22:27;;;;;;;37.03;19.03;;;5.50;1.00;;;;;;5053810;28;20245;-60
2021/11/06 01:24:53;;;;;;;34.93;19.00;;;5.50;1.00;;;;;;5053777;28;20206;-60
2021/11/06 01:27:20;;;;;;;34.30;19.63;;;5.50;1.00;;;;;;5052608;28;20678;-60
2021/11/06 01:29:48;;;;;;;39.07;18.73;;;5.50;1.00;;;;;;5053861;28;20612;-61
2021/11/06 01:32:14;;;;;;;29.43;18.93;;;5.50;1.00;;;;;;5053793;28;20677;-60
2021/11/06 01:34:41;;;;;;;37.33;20.00;;;5.50;36.60;;;;;;5053512;28;20206;-60
2021/11/06 01:37:09;;;;;;;36.20;20.50;;;5.50;74.80;;;;;;5053068;28;20213;-60
2021/11/06 01:39:36;;;;;;;33.73;20.57;;;5.50;99.90;;;;;;5055405;28;20232;-61
2021/11/06 01:42:05;;;;;;;41.73;21.97;;;5.50;99.90;;;;;;5054633;28;20226;-61
2021/11/06 01:44:31;;;;;;;41.77;22.30;;;5.50;99.90;;;;;;5054104;28;20202;-61
2021/11/06 01:46:59;;;;;;;39.53;22.57;;;5.50;99.90;;;;;;5054853;28;20263;-60
2021/11/06 01:49:25;;;;;;;45.63;22.50;;;5.50;99.90;;;;;;5053299;28;20210;-62
2021/11/06 01:51:53;;;;;;;40.13;22.73;;;5.50;99.90;;;;;;5054975;28;20732;-61
2021/11/06 01:54:23;;;;;;;38.90;21.83;;;5.50;99.90;;;;;;5054753;28;20226;-61
2021/11/06 01:56:51;;;;;;;42.57;23.67;;;5.50;99.90;;;;;;5054797;28;20208;-61
2021/11/06 01:59:17;;;;;;;45.97;23.70;;;5.40;99.90;;;;;;5055113;28;20213;-61
2021/11/06 02:01:47;;;;;;;47.67;24.97;;;5.40;99.90;;;;;;5055498;28;20251;-61
2021/11/06 02:04:14;;;;;;;49.97;26.00;;;5.40;99.90;;;;;;5054045;28;20229;-58
2021/11/06 02:06:41;;;;;;;48.37;26.00;;;5.40;1.00;;;;;;5054699;28;20698;-59
2021/11/06 02:09:08;;;;;;;43.53;25.13;;;5.40;1.00;;;;;;5055037;28;20213;-57
2021/11/06 02:11:37;;;;;;;51.33;26.27;;;5.40;1.00;;;;;;5055406;28;20202;-61
2021/11/06 02:14:04;;;;;;;44.47;25.57;;;5.40;1.00;;;;;;5055029;28;20226;-59
2021/11/06 02:16:31;;;;;;;51.77;24.83;;;5.40;1.00;;;;;;5054452;28;20205;-60
2021/11/06 02:18:58;;;;;;;45.33;25.33;;;5.40;1.00;;;;;;5053402;28;20685;-57
2021/11/06 02:21:26;;;;;;;45.37;23.27;;;5.40;1.00;;;;;;5053953;28;20226;-60
2021/11/06 02:23:53;;;;;;;49.17;25.80;;;5.40;1.00;;;;;;5054076;28;20746;-60
2021/11/06 02:26:22;;;;;;;44.07;24.23;;;5.40;1.00;;;;;;5053741;28;20213;-57
2021/11/06 02:28:54;;;;;;;52.63;24.80;;;5.50;1.00;;;;;;5053162;28;20205;-59
2021/11/06 02:31:21;;;;;;;56.03;24.90;;;5.50;1.00;;;;;;5053112;28;20289;-58
2021/11/06 02:33:49;;;;;;;56.77;24.10;;;5.50;1.00;;;;;;5052800;28;20222;-60
2021/11/06 02:36:15;;;;;;;46.67;21.97;;;5.50;1.00;;;;;;5052567;28;20557;-59
2021/11/06 02:38:43;;;;;;;48.70;22.73;;;5.40;1.00;;;;;;5052476;28;20239;-59
2021/11/06 02:41:10;;;;;;;54.80;23.80;;;5.50;1.00;;;;;;5052516;28;20210;-59
2021/11/06 02:43:37;;;;;;;45.07;20.57;;;5.40;1.00;;;;;;5052182;28;20229;-58
2021/11/06 02:46:04;;;;;;;52.47;20.93;;;5.40;1.00;;;;;;5052469;28;20205;-58
2021/11/06 02:48:31;;;;;;;44.13;20.20;;;5.30;99.90;;;;;;5052629;28;20209;-58
2021/11/06 02:50:57;;;;;;;48.13;20.47;;;5.30;99.90;;;;;;5052445;28;20209;-56
2021/11/06 02:53:24;;;;;;;40.90;20.07;;;5.30;99.90;;;;;;5052459;28;20267;-57
2021/11/06 02:55:52;;;;;;;44.00;20.07;;;5.30;99.90;;;;;;5051039;28;20622;-59
2021/11/06 02:58:19;;;;;;;45.73;20.03;;;5.30;99.90;;;;;;5052664;28;20206;-58
2021/11/06 03:00:46;;;;;;;36.40;18.97;;;5.30;99.90;;;;;;5052345;28;20206;-58
2021/11/06 03:03:13;;;;;;;38.07;18.70;;;5.20;99.90;;;;;;5052090;28;20767;-58
2021/11/06 03:05:40;;;;;;;39.27;18.17;;;5.20;1.00;;;;;;5051926;28;20273;-58
2021/11/06 03:08:06;;;;;;;41.33;18.40;;;5.20;1.00;;;;;;5052044;28;20256;-56
2021/11/06 03:10:33;;;;;;;43.43;19.40;;;5.10;99.90;;;;;;5052322;28;20255;-58
2021/11/06 03:13:02;;;;;;;42.67;20.37;;;5.10;99.90;;;;;;5051825;28;20704;-57
2021/11/06 03:15:29;;;;;;;43.37;18.00;;;5.10;99.90;;;;;;5051862;28;20210;-60
2021/11/06 03:17:56;;;;;;;46.13;17.43;;;5.10;99.90;;;;;;5051947;28;20297;-58
2021/11/06 03:20:23;;;;;;;34.83;17.67;;;5.10;99.90;;;;;;5051981;28;20208;-58
2021/11/06 03:22:51;;;;;;;37.70;17.17;;;5.10;99.90;;;;;;5051773;28;20233;-59
2021/11/06 03:25:18;;;;;;;40.90;17.80;;;5.00;99.90;;;;;;5051567;28;20210;-57
2021/11/06 03:27:45;;;;;;;35.67;17.07;;;5.00;76.50;;;;;;5052062;28;20202;-58
2021/11/06 03:30:13;;;;;;;35.20;16.37;;;5.10;1.00;;;;;;5051886;28;20622;-57
2021/11/06 03:32:40;;;;;;;33.17;16.43;;;5.10;1.00;;;;;;5051871;28;20648;-58
2021/11/06 03:35:07;;;;;;;34.50;14.30;;;5.00;1.00;;;;;;5051367;28;20217;-59
2021/11/06 03:37:34;;;;;;;32.50;16.70;;;5.00;1.00;;;;;;5051710;28;20205;-58
2021/11/06 03:40:01;;;;;;;29.50;15.63;;;5.00;99.90;;;;;;5051750;28;20216;-60
2021/11/06 03:42:28;;;;;;;32.53;14.30;;;5.00;99.90;;;;;;5051651;28;20236;-58
2021/11/06 03:44:54;;;;;;;30.77;14.43;;;5.00;99.90;;;;;;5051581;28;20211;-58
2021/11/06 03:47:23;;;;;;;27.77;15.27;;;5.00;99.90;;;;;;5051496;28;20682;-59
2021/11/06 03:49:49;;;;;;;33.87;14.37;;;5.10;99.90;;;;;;5051751;28;20607;-58
2021/11/06 03:52:17;;;;;;;28.00;14.50;;;5.00;99.90;;;;;;5051328;28;20262;-58
2021/11/06 03:54:44;;;;;;;24.73;13.93;;;5.00;1.00;;;;;;5051580;28;20213;-60
2021/11/06 03:57:11;;;;;;;27.03;13.40;;;5.00;1.00;;;;;;5052229;28;20207;-60
2021/11/06 03:59:38;;;;;;;27.47;12.93;;;5.00;1.00;;;;;;5051806;28;20206;-59
2021/11/06 04:02:05;;;;;;;24.53;13.70;;;5.00;1.00;;;;;;5051719;28;20221;-58
2021/11/06 04:04:33;;;;;;;31.93;13.80;;;4.90;1.00;;;;;;5051608;28;20213;-60
2021/11/06 04:06:59;;;;;;;27.87;14.37;;;4.90;1.00;;;;;;5053829;28;20764;-59
2021/11/06 04:09:26;;;;;;;28.60;14.43;;;4.90;1.00;;;;;;5055706;28;20210;-59
2021/11/06 04:11:53;;;;;;;27.33;14.93;;;5.00;1.00;;;;;;5055452;28;20257;-56
2021/11/06 04:14:19;;;;;;;30.03;15.33;;;5.00;1.00;;;;;;5055861;28;20221;-58
2021/11/06 04:16:46;;;;;;;32.83;16.93;;;4.90;1.00;;;;;;5055080;28;20208;-60
2021/11/06 04:19:12;;;;;;;28.93;16.43;;;5.00;30.70;;;;;;5055552;28;20267;-59
2021/11/06 04:21:41;;;;;;;33.33;17.70;;;5.00;99.90;;;;;;5055443;28;20732;-59
2021/11/06 04:24:07;;;;;;;35.67;17.97;;;5.10;99.90;;;;;;5055522;28;20278;-59
2021/11/06 04:26:34;;;;;;;39.87;19.40;;;5.10;1.00;;;;;;5054813;28;20212;-58
2021/11/06 04:29:01;;;;;;;35.17;19.37;;;5.20;1.00;;;;;;5055341;28;20205;-59
2021/11/06 04:31:27;;;;;;;42.03;19.97;;;5.20;99.90;;;;;;5055282;28;20275;-58
2021/11/06 04:33:54;;;;;;;32.67;17.63;;;5.30;67.80;;;;;;5054849;28;20279;-59
2021/11/06 04:36:21;;;;;;;31.67;17.87;;;5.30;17.00;;;;;;5054836;28;20214;-59
2021/11/06 04:38:49;;;;;;;37.57;19.07;;;5.30;1.00;;;;;;5055003;28;20208;-59
2021/11/06 04:41:16;;;;;;;35.80;17.87;;;5.30;1.00;;;;;;5055164;28;20205;-60
2021/11/06 04:43:42;;;;;;;31.13;17.07;;;5.40;99.90;;;;;;5054722;28;20292;-60
2021/11/06 04:46:09;;;;;;;31.27;17.00;;;5.40;99.90;;;;;;5054258;28;20214;-60
2021/11/06 04:48:36;;;;;;;30.40;17.13;;;5.40;99.90;;;;;;5054591;28;20223;-60
2021/11/06 04:51:02;;;;;;;29.83;15.97;;;5.40;1.00;;;;;;5054707;28;20268;-60
2021/11/06 04:53:29;;;;;;;26.83;15.60;;;5.50;1.00;;;;;;5054484;28;20754;-60
2021/11/06 04:55:57;;;;;;;25.97;14.80;;;5.40;1.00;;;;;;5054312;28;20591;-60
2021/11/06 04:58:24;;;;;;;26.17;14.70;;;5.50;99.90;;;;;;5054608;28;20209;-58
2021/11/06 05:00:50;;;;;;;28.17;14.73;;;5.50;99.90;;;;;;5054400;28;20217;-60
2021/11/06 05:03:17;;;;;;;21.77;13.13;;;5.50;45.20;;;;;;5054046;28;20256;-59
2021/11/06 05:05:44;;;;;;;21.37;11.80;;;5.60;1.00;;;;;;5054115;28;20213;-60
2021/11/06 05:08:11;;;;;;;26.20;12.77;;;5.60;1.00;;;;;;5054365;28;20217;-57
2021/11/06 05:10:38;;;;;;;26.83;10.90;;;5.60;1.00;;;;;;5054674;28;20247;-59
2021/11/06 05:13:06;;;;;;;19.77;10.70;;;5.60;99.90;;;;;;5054226;28;20804;-58
2021/11/06 05:15:33;;;;;;;20.17;10.47;;;5.60;99.90;;;;;;5053926;28;20213;-59
2021/11/06 05:18:00;;;;;;;19.23;9.90;;;5.60;99.90;;;;;;5053662;28;20216;-57
2021/11/06 05:20:27;;;;;;;17.73;10.33;;;5.70;99.90;;;;;;5054130;28;20220;-58
2021/11/06 05:22:54;;;;;;;14.80;9.10;;;5.70;99.90;;;;;;5054328;28;20232;-58
2021/11/06 05:25:20;;;;;;;14.50;8.93;;;5.70;71.10;;;;;;5053678;28;20205;-59
2021/11/06 05:27:47;;;;;;;17.33;9.13;;;5.70;28.40;;;;;;5054286;28;20252;-55
2021/11/06 05:30:15;;;;;;;15.77;8.67;;;5.70;1.00;;;;;;5053615;28;20201;-58
2021/11/06 05:32:42;;;;;;;14.47;8.63;;;5.70;1.00;;;;;;5054052;28;20276;-62
2021/11/06 05:35:11;;;;;;;16.57;8.67;;;5.70;1.00;;;;;;5053648;28;20214;-60
2021/11/06 05:37:38;;;;;;;13.57;8.53;;;5.70;1.00;;;;;;5053808;28;20691;-60
2021/11/06 05:40:05;;;;;;;14.90;8.33;;;5.70;1.00;;;;;;5053807;28;20205;-59
2021/11/06 05:42:32;;;;;;;17.03;8.47;;;5.70;1.00;;;;;;5053425;28;20287;-60
2021/11/06 05:44:59;;;;;;;15.43;8.60;;;5.70;1.00;;;;;;5053239;28;20256;-59
2021/11/06 05:47:27;;;;;;;19.70;8.77;;;5.60;1.00;;;;;;5053696;28;20205;-58
2021/11/06 05:49:54;;;;;;;14.23;8.90;;;5.60;1.00;;;;;;5053524;28;20709;-60
2021/11/06 05:52:20;;;;;;;14.60;8.93;;;5.60;1.00;;;;;;5053407;28;20218;-60
2021/11/06 05:54:47;;;;;;;17.90;9.10;;;5.60;99.90;;;;;;5053041;28;20206;-60
2021/11/06 05:57:14;;;;;;;15.43;8.87;;;5.60;99.90;;;;;;5053312;28;20259;-59
2021/11/06 05:59:40;;;;;;;16.73;8.63;;;5.50;99.90;;;;;;5053216;28;20756;-58
2021/11/06 06:02:07;;;;;;;13.87;9.03;;;5.50;99.90;;;;;;5053116;28;20751;-58
2021/11/06 06:04:35;;;;;;;16.93;9.37;;;5.50;99.90;;;;;;5052923;28;20267;-58
2021/11/06 06:07:04;;;;;;;18.47;9.50;;;5.40;99.90;;;;;;5053227;28;20201;-59
2021/11/06 06:09:31;;;;;;;16.50;8.97;;;5.40;99.90;;;;;;5053163;28;20685;-60
2021/11/06 06:11:57;;;;;;;16.80;9.57;;;5.30;99.90;;;;;;5053069;28;20255;-61
2021/11/06 06:14:24;;;;;;;15.87;9.27;;;5.30;1.00;;;;;;5053396;28;20216;-60
2021/11/06 06:16:51;;;;;;;18.43;9.90;;;5.20;1.00;;;;;;5052682;28;20209;-60
2021/11/06 06:19:17;;;;;;;16.47;9.17;;;5.20;1.00;;;;;;5053027;28;20252;-59
2021/11/06 06:21:45;;;;;;;21.23;10.00;;;5.20;1.00;;;;;;5052991;28;20617;-60
2021/11/06 06:24:12;;;;;;;19.67;10.20;;;5.20;1.00;;;;;;5052642;28;20283;-60
2021/11/06 06:26:38;;;;;;;23.30;10.77;;;5.20;1.00;;;;;;5052764;28;20270;-60
2021/11/06 06:29:05;;;;;;;22.37;12.57;;;5.20;1.00;;;;;;5052763;28;20245;-59
2021/11/06 06:31:32;;;;;;;19.37;10.73;;;5.20;1.00;;;;;;5052900;28;20206;-60
2021/11/06 06:33:58;;;;;;;19.63;10.33;;;5.20;1.00;;;;;;5052711;28;20644;-59
2021/11/06 06:36:25;;;;;;;18.83;11.07;;;5.20;1.00;;;;;;5052559;28;20209;-60
2021/11/06 06:38:53;;;;;;;17.93;10.27;;;5.30;1.00;;;;;;5052764;28;20259;-59
2021/11/06 06:41:19;;;;;;;20.43;10.37;;;5.30;1.00;;;;;;5052665;28;20267;-60
2021/11/06 06:43:46;;;;;;;19.40;10.67;;;5.30;1.00;;;;;;5052585;28;20232;-59
2021/11/06 06:46:13;;;;;;;24.07;12.47;;;5.30;1.00;;;;;;5052154;28;20208;-58
2021/11/06 06:48:39;;;;;;;20.17;11.17;;;5.30;1.00;;;;;;5052567;28;20255;-60
2021/11/06 06:51:06;;;;;;;20.80;10.97;;;5.40;1.00;;;;;;5052408;28;20618;-60
2021/11/06 06:53:33;;;;;;;23.57;11.93;;;5.50;1.00;;;;;;5052487;28;20718;-59
2021/11/06 06:56:01;;;;;;;21.17;11.10;;;5.60;1.00;;;;;;5052222;28;20205;-60
2021/11/06 06:58:28;;;;;;;19.57;11.10;;;5.60;1.00;;;;;;5052442;28;20209;-60
2021/11/06 07:00:55;;;;;;;21.03;11.53;;;5.60;1.00;;;;;;5052332;28;20705;-59
2021/11/06 07:03:21;;;;;;;20.40;11.90;;;5.70;99.90;;;;;;5052132;28;20283;-56
2021/11/06 07:05:48;;;;;;;21.87;11.40;;;5.70;99.90;;;;;;5052095;28;20255;-59
2021/11/06 07:08:14;;;;;;;20.57;11.60;;;5.80;99.90;;;;;;5052092;28;20537;-60
2021/11/06 07:10:41;;;;;;;18.83;10.33;;;5.80;99.90;;;;;;5052331;28;20259;-59
2021/11/06 07:13:09;;;;;;;16.13;10.00;;;5.80;99.90;;;;;;5052350;28;20221;-58
2021/11/06 07:15:36;;;;;;;18.30;11.13;;;5.90;99.90;;;;;;5051790;28;20216;-57
2021/11/06 07:18:02;;;;;;;21.73;11.43;;;5.90;99.90;;;;;;5052300;28;20727;-61
2021/11/06 07:20:29;;;;;;;23.77;11.63;;;5.90;99.90;;;;;;5051782;28;20210;-60
2021/11/06 07:22:56;;;;;;;22.00;11.40;;;6.00;99.90;;;;;;5051802;28;20236;-58
2021/11/06 07:25:23;;;;;;;19.37;11.40;;;6.00;99.90;;;;;;5051805;28;20267;-59
2021/11/06 07:27:50;;;;;;;21.80;11.97;;;6.10;99.90;;;;;;5051926;28;20674;-57
2021/11/06 07:30:21;;;;;;;24.60;11.77;;;6.10;99.90;;;;;;5051916;28;20252;-58
2021/11/06 07:32:47;;;;;;;20.90;11.63;;;6.20;99.90;;;;;;5051632;28;20274;-58
2021/11/06 07:35:14;;;;;;;19.60;11.20;;;6.20;99.90;;;;;;5051184;28;20202;-58
2021/11/06 07:37:41;;;;;;;18.03;10.80;;;6.30;99.90;;;;;;5051460;28;20206;-61
2021/11/06 07:40:09;;;;;;;17.83;11.10;;;6.40;99.90;;;;;;5051841;28;20213;-61
2021/11/06 07:42:37;;;;;;;17.63;10.10;;;6.50;99.90;;;;;;5055435;28;20235;-61
2021/11/06 07:45:06;;;;;;;16.43;8.90;;;6.60;99.90;;;;;;5055899;28;20213;-61
2021/11/06 07:47:34;;;;;;;16.87;10.77;;;6.70;99.90;;;;;;5055950;28;20202;-61
2021/11/06 07:50:01;;;;;;;16.00;9.63;;;6.80;99.90;;;;;;5055878;28;20267;-62
2021/11/06 07:52:28;;;;;;;15.00;9.40;;;6.90;79.00;;;;;;5070756;28;20228;-59
2021/11/06 07:54:55;;;;;;;14.80;8.70;;;6.90;59.60;;;;;;5075210;28;20207;-59
2021/11/06 07:57:22;;;;;;;15.10;8.60;;;6.90;27.50;;;;;;5075608;28;20270;-59
2021/11/06 07:59:49;;;;;;;16.13;8.60;;;6.90;20.80;;;;;;5075502;28;20209;-59
2021/11/06 08:02:16;;;;;;;14.43;9.27;;;6.90;17.00;;;;;;5075208;28;20208;-59
2021/11/06 08:04:44;;;;;;;16.03;8.40;;;6.90;2.80;;;;;;5074984;28;20220;-59
2021/11/06 08:07:10;;;;;;;14.93;8.13;;;6.80;1.00;;;;;;5075445;28;20209;-58
2021/11/06 08:09:37;;;;;;;13.53;8.17;;;6.90;2.60;;;;;;5075583;28;20608;-58
2021/11/06 08:12:04;;;;;;;12.97;8.13;;;6.90;1.00;;;;;;5075222;28;20259;-64
2021/11/06 08:14:31;;;;;;;11.13;7.37;;;6.90;1.00;;;;;;5075107;28;20205;-61
2021/11/06 08:16:59;;;;;;;14.47;7.83;;;6.90;1.00;;;;;;5074752;28;20201;-61
2021/11/06 08:19:26;;;;;;;11.67;7.77;;;7.00;1.00;;;;;;5075321;28;20205;-61
2021/11/06 08:21:55;;;;;;;12.43;7.53;;;7.00;1.00;;;;;;5075321;28;20212;-61
2021/11/06 08:24:22;;;;;;;13.13;7.67;;;7.10;1.00;;;;;;5074895;28;20229;-61
2021/11/06 08:26:49;;;;;;;10.93;6.90;;;7.10;1.00;;;;;;5074827;28;20292;-61
2021/11/06 08:29:16;;;;;;;11.20;7.10;;;7.10;1.00;;;;;;5074816;28;20208;-61
2021/11/06 08:31:43;;;;;;;10.13;6.60;;;7.10;1.00;;;;;;5075124;28;20657;-60
2021/11/06 08:34:10;;;;;;;11.67;7.07;;;7.10;1.00;;;;;;5074674;28;20712;-61
2021/11/06 08:36:37;;;;;;;11.30;6.80;;;7.10;1.00;;;;;;5074570;28;20259;-61
2021/11/06 08:39:05;;;;;;;11.80;7.50;;;7.10;1.00;;;;;;5074859;28;20228;-61
2021/11/06 08:41:32;;;;;;;17.63;7.80;;;7.10;1.00;;;;;;5074826;28;20217;-60
2021/11/06 08:43:59;;;;;;;12.23;7.57;;;7.10;1.00;;;;;;5074475;28;20244;-61
2021/11/06 08:46:25;;;;;;;11.00;7.77;;;7.20;1.00;;;;;;5074178;28;20673;-60
2021/11/06 08:48:53;;;;;;;17.17;8.27;;;7.20;1.00;;;;;;5074557;28;20852;-60
2021/11/06 08:51:19;;;;;;;10.87;7.43;;;7.30;1.00;;;;;;5074339;28;20719;-60
2021/11/06 08:53:49;;;;;;;10.73;7.67;;;7.30;1.00;;;;;;5073135;28;20251;-61
2021/11/06 08:56:17;;;;;;;14.23;7.30;;;7.40;1.00;;;;;;5074291;28;20201;-61
2021/11/06 08:58:44;;;;;;;11.50;7.63;;;7.50;1.00;;;;;;5074370;28;20210;-61
2021/11/06 09:01:12;;;;;;;11.80;7.67;;;7.60;1.00;;;;;;5074618;28;20269;-61
2021/11/06 09:03:38;;;;;;;13.13;8.27;;;7.60;1.00;;;;;;5074125;28;20237;-61
2021/11/06 09:06:06;;;;;;;12.30;7.57;;;7.60;1.00;;;;;;5074049;28;20260;-61
2021/11/06 09:08:35;;;;;;;11.33;7.60;;;7.70;1.00;;;;;;5074307;28;20259;-62
2021/11/06 09:11:09;;;;;;;10.13;7.37;;;7.70;1.00;;;;;;5074098;28;20605;-61
2021/11/06 09:13:39;;;;;;;8.90;7.10;;;7.70;1.00;;;;;;5074363;28;20225;-61
2021/11/06 09:16:07;;;;;;;12.10;7.70;;;7.80;1.00;;;;;;5073895;28;20213;-61
2021/11/06 09:18:34;;;;;;;10.67;6.90;;;7.80;1.00;;;;;;5074140;28;20262;-60
2021/11/06 09:21:01;;;;;;;9.90;7.33;;;7.80;1.00;;;;;;5073652;28;20206;-60
2021/11/06 09:23:30;;;;;;;12.53;7.93;;;7.80;1.00;;;;;;5065739;28;20230;-59
2021/11/06 09:25:57;;;;;;;13.33;7.80;;;7.80;1.00;;;;;;5070724;28;20213;-57
2021/11/06 09:28:25;;;;;;;9.90;7.27;;;7.80;1.00;;;;;;5073745;28;20216;-60
2021/11/06 09:30:54;;;;;;;10.40;7.27;;;7.90;1.00;;;;;;5073756;28;20242;-59
2021/11/06 09:33:20;;;;;;;13.33;7.57;;;7.80;1.00;;;;;;5073268;28;20602;-60
2021/11/06 09:35:47;;;;;;;14.10;7.80;;;7.90;1.00;;;;;;5073082;28;20677;-67
2021/11/06 09:38:14;;;;;;;13.03;7.40;;;7.90;1.00;;;;;;5073506;28;20215;-65
2021/11/06 09:40:41;;;;;;;11.97;7.10;;;8.00;1.00;;;;;;5073562;28;20269;-64
2021/11/06 09:43:08;;;;;;;9.17;7.53;;;8.10;1.00;;;;;;5073368;28;20229;-66
2021/11/06 09:45:34;;;;;;;10.53;7.47;;;8.10;1.00;;;;;;5073155;28;20215;-67
2021/11/06 09:48:03;;;;;;;11.40;7.43;;;8.20;1.00;;;;;;5073450;28;20272;-66
2021/11/06 09:50:29;;;;;;;13.27;7.20;;;8.20;1.00;;;;;;5073023;28;20211;-67
2021/11/06 09:56:20;;;;;;;9.43;7.23;;;8.40;1.00;;;;;;5049620;28;20580;-70
2021/11/06 09:58:48;;;;;;;12.63;8.13;;;8.40;1.00;;;;;;5073463;28;20208;-66
2021/11/06 10:01:16;;;;;;;11.77;7.17;;;8.50;1.00;;;;;;5072838;28;20216;-66
2021/11/06 10:03:44;;;;;;;11.60;7.10;;;8.50;1.00;;;;;;5072004;28;20239;-67
2021/11/06 10:06:18;;;;;;;11.63;7.30;;;8.50;1.00;;;;;;5072555;28;20207;-68
2021/11/06 10:08:45;;;;;;;9.57;6.70;;;8.50;1.00;;;;;;5072804;28;20208;-71
2021/11/06 10:11:14;;;;;;;11.50;7.40;;;8.40;1.00;;;;;;5072216;28;20216;-71
2021/11/06 10:13:58;;;;;;;9.60;6.83;;;8.60;1.00;;;;;;5072374;28;20231;-70
2021/11/06 10:16:31;;;;;;;13.43;6.80;;;8.70;1.00;;;;;;5072619;28;20223;-70
2021/11/06 10:19:08;;;;;;;9.70;6.70;;;8.80;1.00;;;;;;5072816;28;20257;-69
2021/11/06 10:21:35;;;;;;;10.40;6.23;;;8.90;1.00;;;;;;5072642;28;20211;-68
2021/11/06 10:24:02;;;;;;;14.70;7.47;;;8.90;1.00;;;;;;5070933;28;20228;-69
2021/11/06 10:26:29;;;;;;;9.97;6.60;;;9.00;1.00;;;;;;5072603;28;20209;-69
2021/11/06 10:29:06;;;;;;;8.57;6.10;;;9.10;1.00;;;;;;5071957;28;20254;-70
2021/11/06 10:34:45;;;;;;;7.10;5.70;;;9.00;1.00;;;;;;5264420;22;20260;-69
2021/11/06 10:37:12;;;;;;;9.93;6.13;;;9.10;1.00;;;;;;5032570;28;20206;-69
2021/11/06 10:39:56;;;;;;;10.57;6.30;;;9.10;1.00;;;;;;5032407;28;20267;-66
2021/11/06 10:42:23;;;;;;;9.37;6.27;;;9.00;1.00;;;;;;5032541;28;20262;-68
2021/11/06 10:44:49;;;;;;;9.57;6.60;;;9.10;1.00;;;;;;5031182;28;20575;-72
2021/11/06 10:47:17;;;;;;;11.60;6.47;;;9.20;1.00;;;;;;5032428;28;20211;-71
2021/11/06 10:49:49;;;;;;;8.90;6.73;;;9.30;1.00;;;;;;5031674;28;20213;-72
2021/11/06 10:52:19;;;;;;;11.53;7.07;;;9.30;1.00;;;;;;5032115;28;20199;-64
2021/11/06 10:55:06;;;;;;;8.63;6.93;;;9.30;1.00;;;;;;5031509;28;20289;-63
2021/11/06 10:57:33;;;;;;;7.93;6.13;;;9.40;1.00;;;;;;5032294;28;20264;-62
2021/11/06 11:00:13;;;;;;;7.30;6.00;;;9.70;1.00;;;;;;5031945;28;20206;-63
2021/11/06 11:02:41;;;;;;;9.37;6.17;;;9.90;1.00;;;;;;5031867;28;20664;-63
2021/11/06 11:05:33;;;;;;;8.60;5.70;;;9.90;1.00;;;;;;5031527;28;20307;-63
2021/11/06 11:08:07;;;;;;;7.67;5.60;;;10.10;1.00;;;;;;5031940;28;20210;-62
2021/11/06 11:10:34;;;;;;;7.77;5.37;;;10.10;1.00;;;;;;5032089;28;20643;-64
2021/11/06 11:13:08;;;;;;;5.70;5.10;;;10.10;1.00;;;;;;5032384;28;20222;-65
2021/11/06 11:15:35;;;;;;;8.97;5.73;;;10.10;1.00;;;;;;5031680;28;20206;-65
2021/11/06 11:18:01;;;;;;;9.17;5.57;;;10.20;1.00;;;;;;5031643;28;20585;-65
2021/11/06 11:20:30;;;;;;;10.87;5.30;;;10.10;1.00;;;;;;5031989;28;20214;-65
2021/11/06 11:23:13;;;;;;;10.47;6.03;;;10.10;1.00;;;;;;5031691;28;20226;-65
2021/11/06 11:25:42;;;;;;;8.80;5.67;;;9.90;1.00;;;;;;5031204;28;20222;-65
2021/11/06 11:28:09;;;;;;;8.20;5.30;;;10.00;1.00;;;;;;5032680;28;20275;-65
2021/11/06 11:30:36;;;;;;;9.97;5.73;;;10.00;1.00;;;;;;5033172;28;20203;-66
2021/11/06 11:33:03;;;;;;;7.10;5.53;;;9.90;1.00;;;;;;5030150;28;20241;-65
2021/11/06 11:35:31;;;;;;;7.40;5.03;;;9.80;1.00;;;;;;5031094;28;20205;-66
2021/11/06 11:37:58;;;;;;;9.00;5.90;;;9.90;1.00;;;;;;5031692;28;20206;-67
2021/11/06 11:40:30;;;;;;;8.47;5.73;;;9.80;1.00;;;;;;5031634;28;20264;-64
2021/11/06 11:43:10;;;;;;;11.23;6.10;;;9.70;1.00;;;;;;5031277;28;20222;-65
2021/11/06 11:45:46;;;;;;;8.47;5.63;;;9.70;1.00;;;;;;5031157;28;20287;-66
2021/11/06 11:48:15;;;;;;;8.03;5.60;;;9.80;1.00;;;;;;5031488;28;20210;-64
2021/11/06 11:50:44;;;;;;;10.33;5.70;;;9.70;1.00;;;;;;5031608;28;20589;-64
2021/11/06 11:53:21;;;;;;;10.00;6.53;;;9.90;1.00;;;;;;5031235;28;20226;-65
2021/11/06 11:55:51;;;;;;;8.13;5.27;;;10.00;1.00;;;;;;5031298;28;20206;-65
2021/11/06 11:58:22;;;;;;;9.33;5.40;;;10.00;1.00;;;;;;5031258;28;20211;-66
2021/11/06 12:00:51;;;;;;;6.73;4.87;;;10.30;1.00;;;;;;5031277;28;20221;-66
2021/11/06 12:03:33;;;;;;;6.03;4.83;;;10.40;1.00;;;;;;5031173;28;20226;-63
2021/11/06 12:06:00;;;;;;;7.23;4.93;;;10.50;1.00;;;;;;5030565;28;20316;-62
2021/11/06 12:08:45;;;;;;;7.67;4.80;;;10.40;1.00;;;;;;5031617;28;20229;-63
2021/11/06 12:11:25;;;;;;;6.50;4.67;;;10.40;1.00;;;;;;5031530;28;20271;-62
2021/11/06 12:13:54;;;;;;;7.27;4.53;;;10.50;1.00;;;;;;5031039;28;20226;-62
2021/11/06 12:16:42;;;;;;;6.50;4.90;;;10.40;1.00;;;;;;5030653;28;20199;-63
2021/11/06 12:19:09;;;;;;;7.17;4.83;;;10.30;1.00;;;;;;5031397;28;20293;-63
2021/11/06 12:21:44;;;;;;;7.60;5.30;;;10.30;1.00;;;;;;5031340;28;20630;-62
2021/11/06 12:24:29;;;;;;;5.97;4.23;;;10.40;1.00;;;;;;5030811;28;20570;-63
2021/11/06 12:27:02;;;;;;;8.20;4.10;;;10.30;1.00;;;;;;5031443;28;20213;-64
2021/11/06 12:29:53;;;;;;;5.93;4.40;;;10.30;1.00;;;;;;5034944;28;20214;-63
2021/11/06 12:32:32;;;;;;;5.40;4.20;;;10.40;1.00;;;;;;5034906;28;20237;-63
2021/11/06 12:35:01;;;;;;;5.40;4.27;;;10.40;1.00;;;;;;5033974;28;20212;-63
2021/11/06 12:37:55;;;;;;;6.90;4.27;;;10.50;1.00;;;;;;5034374;28;20630;-64
2021/11/06 12:40:32;;;;;;;5.80;3.83;;;10.70;1.00;;;;;;5034746;28;20540;-63
2021/11/06 12:43:15;;;;;;;4.47;3.50;;;10.70;1.00;;;;;;5034463;28;20228;-62
2021/11/06 12:45:45;;;;;;;5.23;3.50;;;10.70;1.00;;;;;;5033612;28;20233;-63
2021/11/06 12:48:14;;;;;;;5.70;3.60;;;10.70;1.00;;;;;;5034597;28;20206;-63
2021/11/06 12:50:42;;;;;;;6.83;3.63;;;10.70;1.00;;;;;;5034609;28;20211;-64
2021/11/06 12:53:09;;;;;;;5.17;3.47;;;10.70;1.00;;;;;;5034238;28;20288;-64
2021/11/06 12:55:36;;;;;;;8.60;3.50;;;10.70;1.00;;;;;;5033838;28;20207;-64
2021/11/06 12:58:04;;;;;;;4.63;3.10;;;10.70;1.00;;;;;;5034344;28;20214;-62
2021/11/06 13:00:35;;;;;;;3.23;2.80;;;10.70;1.00;;;;;;5034303;28;20202;-62